Time;durP1;ratioP1;P1;durP2;ratioP2;P2;SDS_P1;SDS_P2;PMS_P1;PMS_P2;Temp;Humidity;BMP_temperature;BMP_pressure;BME280_temperature;BME280_humidity;BME280_pressure;Samples;Min_cycle;Max_cycle;Signal;HPM_P1;HPM_P2
2021/12/17 00:01:41;;;;;;;1.15;1.15;;;8.00;99.90;;;;;;5012526;28;20050;-79
2021/12/17 00:04:24;;;;;;;1.75;0.82;;;8.00;99.90;;;;;;5015587;28;20053;-79
2021/12/17 00:06:50;;;;;;;2.65;1.27;;;8.00;99.90;;;;;;5026211;28;20029;-80
2021/12/17 00:09:15;;;;;;;2.20;1.77;;;8.00;99.90;;;;;;5019356;28;20394;-78
2021/12/17 00:11:41;;;;;;;0.57;0.57;;;8.00;99.90;;;;;;5014418;28;20088;-78
2021/12/17 00:14:07;;;;;;;1.60;1.17;;;8.00;99.90;;;;;;5014050;28;20042;-79
2021/12/17 00:16:40;;;;;;;0.60;0.60;;;8.00;99.90;;;;;;5030211;28;20125;-79
2021/12/17 00:19:21;;;;;;;7.18;1.25;;;8.00;99.90;;;;;;4997977;28;20042;-79
2021/12/17 00:49:26;;;;;;;6.47;2.55;;;8.00;99.90;;;;;;4915665;29;20088;-78
2021/12/17 00:51:57;;;;;;;2.40;2.28;;;8.00;99.90;;;;;;4915488;29;20056;-79
2021/12/17 00:54:33;;;;;;;0.77;0.65;;;8.00;99.90;;;;;;4915534;29;20050;-79
2021/12/17 00:57:04;;;;;;;3.50;1.75;;;8.00;99.90;;;;;;4899475;29;20056;-79
2021/12/17 00:59:29;;;;;;;4.82;1.17;;;8.00;99.90;;;;;;4915389;29;20048;-79
2021/12/17 01:01:58;;;;;;;2.70;2.40;;;8.00;99.90;;;;;;4899936;29;20040;-79
2021/12/17 01:04:24;;;;;;;2.35;1.23;;;8.00;99.90;;;;;;4899819;29;20124;-79
2021/12/17 01:06:49;;;;;;;4.20;2.97;;;8.00;99.90;;;;;;4915412;29;20461;-79
2021/12/17 01:09:18;;;;;;;1.38;1.38;;;8.00;99.90;;;;;;4899818;29;20560;-78
2021/12/17 01:11:43;;;;;;;0.57;0.57;;;8.00;99.90;;;;;;4921725;29;20056;-79
2021/12/17 01:14:10;;;;;;;0.80;0.68;;;8.00;99.90;;;;;;4952704;29;20045;-79
2021/12/17 01:16:36;;;;;;;1.98;1.75;;;8.00;99.90;;;;;;4937331;29;20194;-79
2021/12/17 01:35:29;;;;;;;4.35;1.40;;;8.00;99.90;;;;;;4995711;28;20054;-78
2021/12/17 01:41:09;;;;;;;0.65;0.57;;;7.90;99.90;;;;;;5012041;28;20065;-79
2021/12/17 01:43:42;;;;;;;5.20;4.38;;;8.00;99.90;;;;;;4995530;28;20042;-80
2021/12/17 01:46:10;;;;;;;0.80;0.77;;;8.00;99.90;;;;;;4995610;28;20502;-79
2021/12/17 01:59:58;;;;;;;0.65;0.65;;;7.90;99.90;;;;;;4936836;29;20078;-80
2021/12/17 02:02:25;;;;;;;0.82;0.82;;;7.90;99.90;;;;;;4936569;29;20070;-79
2021/12/17 02:04:51;;;;;;;4.97;3.58;;;7.90;99.90;;;;;;4936425;29;20055;-80
2021/12/17 02:07:16;;;;;;;4.03;1.63;;;7.90;99.90;;;;;;4936357;29;20047;-79
2021/12/17 02:12:35;;;;;;;2.08;1.35;;;7.90;99.90;;;;;;4952301;29;20047;-79
2021/12/17 02:28:43;;;;;;;9.68;3.85;;;7.90;99.90;;;;;;4935757;29;20083;-80
2021/12/17 02:29:01;;;;;;;1.33;0.40;;;7.90;99.90;;;;;;5003400;28;20064;-80
2021/12/17 02:31:32;;;;;;;2.20;2.00;;;8.00;99.90;;;;;;5011274;28;20046;-79
2021/12/17 02:34:05;;;;;;;0.75;0.75;;;8.00;99.90;;;;;;4995331;28;20096;-79
2021/12/17 02:36:34;;;;;;;1.52;1.42;;;7.90;99.90;;;;;;5012477;28;20046;-81
2021/12/17 02:47:19;;;;;;;0.35;0.35;;;7.90;99.90;;;;;;4974266;28;20061;-79
2021/12/17 02:49:47;;;;;;;1.08;1.08;;;7.90;99.90;;;;;;4974325;28;20046;-80
2021/12/17 02:52:14;;;;;;;1.02;0.93;;;7.90;99.90;;;;;;4974003;28;20181;-79
2021/12/17 02:54:40;;;;;;;0.85;0.85;;;7.90;99.90;;;;;;4974430;28;20499;-79
2021/12/17 02:57:08;;;;;;;0.75;0.63;;;7.90;99.90;;;;;;4973997;28;20066;-79
2021/12/17 02:59:35;;;;;;;0.70;0.70;;;7.90;99.90;;;;;;4974168;28;20054;-79
2021/12/17 03:02:09;;;;;;;2.38;1.42;;;7.90;99.90;;;;;;4974230;28;20133;-79
2021/12/17 03:04:38;;;;;;;3.70;2.30;;;7.90;99.90;;;;;;4974241;28;20050;-79
2021/12/17 03:07:04;;;;;;;0.93;0.90;;;7.90;99.90;;;;;;4974028;28;20063;-79
2021/12/17 03:09:50;;;;;;;1.27;1.00;;;7.80;99.90;;;;;;4974429;28;20097;-79
2021/12/17 03:12:29;;;;;;;1.05;1.05;;;7.90;99.90;;;;;;4989021;28;20216;-79
2021/12/17 03:15:03;;;;;;;0.95;0.95;;;7.90;99.90;;;;;;4974307;28;20058;-79
2021/12/17 03:25:43;;;;;;;0.73;0.70;;;7.80;99.90;;;;;;4948803;29;20147;-79
2021/12/17 03:28:09;;;;;;;6.00;1.50;;;7.80;99.90;;;;;;4948517;29;20460;-79
2021/12/17 03:30:35;;;;;;;0.30;0.30;;;7.70;99.90;;;;;;4916670;29;20051;-79
2021/12/17 03:33:00;;;;;;;1.15;0.75;;;7.70;99.90;;;;;;4948803;29;20199;-79
2021/12/17 03:35:26;;;;;;;0.93;0.82;;;7.70;99.90;;;;;;4933250;29;20429;-79
2021/12/17 03:37:52;;;;;;;0.30;0.30;;;7.70;99.90;;;;;;4936226;29;20048;-79
2021/12/17 03:40:19;;;;;;;0.50;0.50;;;7.70;99.90;;;;;;4920185;29;20048;-79
2021/12/17 03:42:49;;;;;;;1.00;0.30;;;7.70;99.90;;;;;;4936269;29;20055;-80
2021/12/17 03:45:16;;;;;;;1.15;1.15;;;7.70;99.90;;;;;;4920412;29;20502;-80
2021/12/17 03:47:42;;;;;;;1.45;1.35;;;7.70;99.90;;;;;;4936033;29;20047;-80
2021/12/17 03:50:09;;;;;;;1.17;0.93;;;7.60;99.90;;;;;;4920100;29;20056;-79
2021/12/17 03:52:35;;;;;;;0.20;0.20;;;7.60;99.90;;;;;;4920110;29;20110;-79
2021/12/17 03:55:00;;;;;;;0.50;0.50;;;7.60;99.90;;;;;;4951929;29;20043;-79
2021/12/17 03:57:26;;;;;;;2.90;1.42;;;7.50;99.90;;;;;;4976833;28;20131;-79
2021/12/17 03:59:52;;;;;;;1.27;0.82;;;7.50;99.90;;;;;;5015585;28;20046;-79
2021/12/17 04:02:18;;;;;;;4.57;0.65;;;7.50;99.90;;;;;;5014245;28;20041;-79
2021/12/17 04:04:44;;;;;;;4.75;1.13;;;7.40;99.90;;;;;;4997943;28;20132;-79
2021/12/17 04:07:10;;;;;;;0.38;0.38;;;7.40;99.90;;;;;;4998210;28;20038;-79
2021/12/17 04:09:36;;;;;;;1.30;1.30;;;7.40;99.90;;;;;;5015289;28;20065;-80
2021/12/17 04:12:06;;;;;;;1.55;1.35;;;7.40;99.90;;;;;;5015037;28;20077;-79
2021/12/17 04:14:35;;;;;;;3.20;1.42;;;7.30;99.90;;;;;;5030572;28;20046;-79
2021/12/17 04:17:05;;;;;;;0.43;0.43;;;7.30;99.90;;;;;;4997581;28;20053;-79
2021/12/17 04:19:32;;;;;;;0.75;0.75;;;7.30;99.90;;;;;;4997511;28;20041;-79
2021/12/17 04:21:58;;;;;;;3.15;2.15;;;7.30;99.90;;;;;;5013884;28;20052;-79
2021/12/17 04:24:24;;;;;;;2.72;0.90;;;7.30;99.90;;;;;;5015026;28;20042;-80
2021/12/17 04:26:49;;;;;;;2.40;1.25;;;7.30;99.90;;;;;;5013742;28;20157;-79
2021/12/17 04:29:16;;;;;;;0.70;0.57;;;7.30;99.90;;;;;;4997416;28;20046;-79
2021/12/17 04:31:42;;;;;;;1.08;0.98;;;7.40;99.90;;;;;;4997313;28;20129;-79
2021/12/17 04:34:09;;;;;;;1.60;1.20;;;7.40;99.90;;;;;;5013743;28;20225;-80
2021/12/17 04:36:36;;;;;;;0.90;0.88;;;7.40;99.90;;;;;;4997420;28;20463;-79
2021/12/17 04:39:03;;;;;;;0.35;0.35;;;7.40;99.90;;;;;;4997227;28;20049;-80
2021/12/17 04:44:07;;;;;;;3.05;2.78;;;7.40;99.90;;;;;;5013640;28;20482;-79
2021/12/17 04:57:31;;;;;;;5.95;1.05;;;7.50;99.90;;;;;;4994559;28;20046;-79
2021/12/17 05:00:20;;;;;;;0.60;0.60;;;7.50;99.90;;;;;;5014501;28;20062;-79
2021/12/17 05:02:50;;;;;;;0.55;0.47;;;7.60;99.90;;;;;;4996815;28;20076;-80
2021/12/17 05:05:18;;;;;;;2.08;1.98;;;7.50;99.90;;;;;;4996804;28;20093;-78
2021/12/17 05:08:21;;;;;;;1.33;1.33;;;7.50;99.90;;;;;;5029789;28;20451;-79
2021/12/17 05:18:47;;;;;;;1.10;1.10;;;7.60;99.90;;;;;;4996420;28;20054;-79
2021/12/17 05:21:14;;;;;;;0.75;0.50;;;7.60;99.90;;;;;;4996560;28;20050;-78
2021/12/17 05:23:42;;;;;;;0.40;0.40;;;7.60;99.90;;;;;;5013937;28;20056;-79
2021/12/17 05:26:12;;;;;;;0.57;0.57;;;7.60;99.90;;;;;;5029079;28;20060;-78
2021/12/17 05:28:38;;;;;;;2.47;0.50;;;7.60;99.90;;;;;;5029378;28;20534;-79
2021/12/17 05:31:04;;;;;;;0.15;0.15;;;7.60;99.90;;;;;;4996038;28;20060;-79
2021/12/17 05:33:30;;;;;;;0.70;0.70;;;7.60;99.90;;;;;;5012594;28;20077;-77
2021/12/17 05:35:59;;;;;;;0.55;0.55;;;7.60;99.90;;;;;;5013820;28;20038;-79
2021/12/17 05:38:26;;;;;;;0.75;0.47;;;7.60;99.90;;;;;;4996084;28;20050;-78
2021/12/17 05:40:53;;;;;;;0.38;0.25;;;7.60;99.90;;;;;;5029151;28;20045;-79
2021/12/17 05:43:19;;;;;;;4.22;0.57;;;7.60;99.90;;;;;;5012123;28;20048;-79
2021/12/17 05:48:26;;;;;;;2.67;0.47;;;7.60;99.90;;;;;;4996078;28;20054;-79
2021/12/17 05:50:57;;;;;;;0.77;0.77;;;7.60;99.90;;;;;;4995863;28;20113;-79
2021/12/17 05:53:24;;;;;;;0.77;0.77;;;7.60;99.90;;;;;;4995957;28;20049;-78
2021/12/17 05:55:50;;;;;;;0.45;0.22;;;7.60;99.90;;;;;;5028654;28;20226;-79
2021/12/17 05:58:16;;;;;;;1.08;0.28;;;7.60;99.90;;;;;;4995099;28;20056;-79
2021/12/17 06:00:43;;;;;;;2.28;1.58;;;7.70;99.90;;;;;;5013103;28;20037;-79
2021/12/17 06:03:09;;;;;;;0.95;0.93;;;7.60;99.90;;;;;;5013185;28;20042;-79
2021/12/17 06:05:35;;;;;;;2.50;2.30;;;7.60;99.90;;;;;;4995838;28;20068;-78
2021/12/17 06:08:01;;;;;;;0.40;0.40;;;7.60;99.90;;;;;;5012165;28;20511;-78
2021/12/17 06:10:27;;;;;;;0.50;0.50;;;7.60;99.90;;;;;;5013491;28;20557;-78
2021/12/17 06:12:53;;;;;;;0.77;0.77;;;7.60;99.90;;;;;;5013084;28;20041;-81
2021/12/17 06:15:20;;;;;;;4.15;0.50;;;7.60;99.90;;;;;;5011609;28;20050;-81
2021/12/17 06:17:47;;;;;;;0.95;0.90;;;7.60;99.90;;;;;;4995261;28;20056;-81
2021/12/17 06:20:14;;;;;;;1.75;0.93;;;7.60;99.90;;;;;;5011920;28;20491;-78
2021/12/17 06:22:41;;;;;;;0.40;0.40;;;7.60;99.90;;;;;;5028184;28;20053;-77
2021/12/17 06:25:08;;;;;;;0.75;0.75;;;7.60;99.90;;;;;;4995258;28;20103;-79
2021/12/17 06:27:35;;;;;;;0.20;0.20;;;7.60;99.90;;;;;;4995228;28;20053;-78
2021/12/17 06:30:02;;;;;;;4.35;1.08;;;7.60;99.90;;;;;;5027828;28;20046;-78
2021/12/17 06:32:27;;;;;;;0.63;0.63;;;7.60;99.90;;;;;;4995252;28;20061;-79
2021/12/17 06:34:53;;;;;;;0.52;0.52;;;7.50;99.90;;;;;;4995364;28;20054;-78
2021/12/17 06:37:20;;;;;;;1.08;0.30;;;7.50;99.90;;;;;;5012494;28;20049;-78
2021/12/17 06:39:47;;;;;;;0.52;0.52;;;7.50;99.90;;;;;;5013379;28;20046;-79
2021/12/17 06:42:13;;;;;;;0.35;0.35;;;7.50;99.90;;;;;;4995364;28;20065;-79
2021/12/17 06:44:41;;;;;;;0.63;0.63;;;7.50;99.90;;;;;;5013016;28;20081;-79
2021/12/17 06:47:13;;;;;;;0.63;0.47;;;7.60;99.90;;;;;;4994929;28;20100;-79
2021/12/17 07:00:35;;;;;;;0.30;0.30;;;7.60;99.90;;;;;;5012420;28;20147;-79
2021/12/17 07:11:00;;;;;;;2.45;1.13;;;7.60;99.90;;;;;;4997928;28;20148;-79
2021/12/17 07:34:13;;;;;;;1.98;1.98;;;7.60;99.90;;;;;;5015867;28;20049;-79
2021/12/17 07:39:30;;;;;;;0.30;0.30;;;7.60;99.90;;;;;;4920419;29;20047;-79
2021/12/17 07:41:56;;;;;;;0.55;0.55;;;7.60;99.90;;;;;;4952368;29;20555;-79
2021/12/17 07:44:22;;;;;;;1.00;0.40;;;7.60;99.90;;;;;;4952066;29;20504;-79
2021/12/17 07:46:47;;;;;;;0.43;0.43;;;7.60;99.90;;;;;;4920032;29;20413;-79
2021/12/17 07:49:13;;;;;;;1.05;0.95;;;7.60;99.90;;;;;;4904365;29;20055;-82
2021/12/17 07:51:39;;;;;;;2.05;1.95;;;7.60;99.90;;;;;;4951742;29;20114;-82
2021/12/17 07:54:04;;;;;;;2.08;1.63;;;7.50;99.90;;;;;;4919955;29;20106;-82
2021/12/17 07:56:37;;;;;;;1.48;0.85;;;7.60;99.90;;;;;;4951820;29;20064;-82
2021/12/17 07:59:04;;;;;;;0.10;0.10;;;7.60;99.90;;;;;;4919741;29;20043;-82
2021/12/17 08:01:29;;;;;;;1.85;1.30;;;7.60;99.90;;;;;;4919882;29;20052;-81
2021/12/17 08:03:55;;;;;;;0.57;0.57;;;7.60;99.90;;;;;;4951783;29;20063;-82
2021/12/17 08:06:21;;;;;;;0.30;0.30;;;7.60;99.90;;;;;;4935248;29;20044;-82
2021/12/17 08:08:47;;;;;;;1.15;1.08;;;7.60;99.90;;;;;;4919845;29;20099;-82
2021/12/17 08:11:13;;;;;;;2.75;1.30;;;7.60;99.90;;;;;;4919468;29;20065;-82
2021/12/17 08:13:40;;;;;;;0.43;0.43;;;7.60;99.90;;;;;;4919737;29;20062;-82
2021/12/17 08:19:07;;;;;;;2.72;2.20;;;7.60;99.90;;;;;;5014078;28;20053;-82
2021/12/17 08:32:00;;;;;;;1.17;1.17;;;7.60;99.90;;;;;;5014866;28;20112;-83
2021/12/17 08:34:26;;;;;;;0.65;0.60;;;7.70;99.90;;;;;;5014753;28;20493;-82
2021/12/17 08:36:52;;;;;;;5.50;2.38;;;7.70;99.90;;;;;;4997295;28;20053;-82
2021/12/17 08:39:18;;;;;;;0.10;0.10;;;7.70;99.90;;;;;;5014677;28;20052;-82
2021/12/17 08:41:44;;;;;;;1.20;0.93;;;7.70;99.90;;;;;;5014774;28;20446;-82
2021/12/17 08:44:10;;;;;;;1.85;0.50;;;7.70;99.90;;;;;;5029749;28;20049;-80
2021/12/17 08:46:36;;;;;;;1.10;1.10;;;7.70;99.90;;;;;;5014499;28;20055;-79
2021/12/17 08:49:04;;;;;;;1.80;0.77;;;7.70;99.90;;;;;;5014432;28;20073;-79
2021/12/17 08:51:31;;;;;;;0.50;0.50;;;7.80;99.90;;;;;;5029633;28;20046;-80
2021/12/17 08:53:57;;;;;;;7.13;3.00;;;7.80;99.90;;;;;;4997289;28;20046;-80
2021/12/17 08:56:23;;;;;;;1.02;0.80;;;7.80;99.90;;;;;;5014561;28;20038;-79
2021/12/17 08:58:53;;;;;;;0.60;0.38;;;7.80;99.90;;;;;;5014261;28;20136;-79
2021/12/17 09:01:19;;;;;;;1.77;1.67;;;7.90;99.90;;;;;;5014261;28;20052;-79
2021/12/17 09:03:47;;;;;;;2.55;1.48;;;7.80;99.90;;;;;;4996824;28;20139;-79
2021/12/17 09:06:14;;;;;;;2.92;1.45;;;7.90;99.90;;;;;;5014139;28;20414;-79
2021/12/17 09:08:40;;;;;;;1.65;0.77;;;7.90;99.90;;;;;;5014297;28;20050;-79
2021/12/17 09:11:06;;;;;;;2.55;1.02;;;7.90;99.90;;;;;;5012802;28;20156;-79
2021/12/17 09:13:31;;;;;;;3.67;1.83;;;8.00;99.90;;;;;;5014027;28;20100;-79
2021/12/17 09:16:03;;;;;;;4.45;1.23;;;8.00;99.90;;;;;;5012772;28;20059;-79
2021/12/17 09:18:29;;;;;;;0.77;0.77;;;8.00;99.90;;;;;;4996444;28;20049;-79
2021/12/17 09:20:54;;;;;;;7.45;1.02;;;8.00;99.90;;;;;;5013990;28;20042;-79
2021/12/17 09:23:20;;;;;;;1.33;1.17;;;8.00;99.90;;;;;;4996248;28;20050;-79
2021/12/17 09:25:46;;;;;;;1.83;0.77;;;8.00;99.90;;;;;;5013890;28;20046;-79
2021/12/17 09:28:11;;;;;;;2.17;1.67;;;8.10;99.90;;;;;;4996261;28;20041;-79
2021/12/17 09:30:37;;;;;;;2.67;2.13;;;8.10;99.90;;;;;;4996073;28;20111;-79
2021/12/17 09:33:03;;;;;;;1.45;1.25;;;8.10;99.90;;;;;;5027913;28;20042;-79
2021/12/17 09:35:29;;;;;;;0.90;0.90;;;8.10;99.90;;;;;;5013743;28;20049;-80
2021/12/17 09:37:55;;;;;;;1.08;0.95;;;8.10;99.90;;;;;;5013786;28;20121;-79
2021/12/17 09:40:20;;;;;;;2.30;1.33;;;8.20;99.90;;;;;;4996087;28;20391;-79
2021/12/17 09:42:47;;;;;;;1.13;1.10;;;8.20;99.90;;;;;;4995786;28;20111;-79
2021/12/17 09:45:15;;;;;;;1.85;1.75;;;8.20;99.90;;;;;;4995691;28;20053;-79
2021/12/17 09:47:43;;;;;;;1.15;0.98;;;8.20;99.90;;;;;;5012040;28;20042;-79
2021/12/17 09:50:11;;;;;;;2.15;1.65;;;8.20;99.90;;;;;;5028397;28;20049;-79
2021/12/17 09:52:36;;;;;;;0.60;0.60;;;8.20;99.90;;;;;;5012309;28;20132;-80
2021/12/17 09:55:05;;;;;;;1.00;1.00;;;8.30;99.90;;;;;;5012078;28;20123;-79
2021/12/17 09:57:35;;;;;;;0.52;0.52;;;8.30;99.90;;;;;;5011999;28;20506;-79
2021/12/17 10:00:23;;;;;;;1.17;1.17;;;8.30;99.90;;;;;;4995524;28;20132;-79
2021/12/17 10:02:50;;;;;;;2.08;1.98;;;8.40;99.90;;;;;;4995669;28;20072;-80
2021/12/17 10:05:23;;;;;;;1.48;0.90;;;8.40;99.90;;;;;;5011912;28;20149;-80
2021/12/17 10:08:13;;;;;;;3.40;1.60;;;8.40;99.90;;;;;;4995528;28;20137;-80
2021/12/17 10:10:45;;;;;;;0.95;0.95;;;8.40;99.90;;;;;;4988379;28;20124;-80
2021/12/17 10:13:16;;;;;;;;;;;8.40;99.90;;;;;;5013206;28;20108;-80
2021/12/17 10:15:46;;;;;;;1.33;1.23;;;8.40;99.90;;;;;;5028394;28;20008;-80
2021/12/17 10:18:13;;;;;;;1.05;0.90;;;8.50;99.90;;;;;;5027986;28;20046;-80
2021/12/17 10:20:57;;;;;;;1.83;1.58;;;8.50;99.90;;;;;;4995499;28;20491;-80
2021/12/17 10:23:25;;;;;;;1.60;0.98;;;8.40;99.90;;;;;;4995521;28;20046;-79
2021/12/17 10:25:52;;;;;;;2.40;0.80;;;8.50;99.90;;;;;;5028023;28;20053;-80
2021/12/17 10:28:17;;;;;;;1.35;0.80;;;8.50;99.90;;;;;;4995295;28;20133;-79
2021/12/17 10:30:48;;;;;;;3.60;1.98;;;8.50;99.90;;;;;;5012839;28;20116;-78
2021/12/17 10:33:18;;;;;;;2.00;1.67;;;8.50;99.90;;;;;;4995220;28;20046;-79
2021/12/17 10:35:47;;;;;;;1.38;1.30;;;8.50;99.90;;;;;;5011391;28;20045;-79
2021/12/17 10:38:16;;;;;;;1.38;1.27;;;8.50;99.90;;;;;;5011514;28;20494;-79
2021/12/17 10:40:52;;;;;;;0.43;0.43;;;8.50;99.90;;;;;;5028068;28;20046;-79
2021/12/17 10:43:24;;;;;;;0.63;0.30;;;8.60;99.90;;;;;;5011458;28;20580;-79
2021/12/17 10:53:55;;;;;;;4.40;2.63;;;8.70;99.90;;;;;;4897994;29;20059;-80
2021/12/17 10:56:26;;;;;;;2.42;1.08;;;8.70;99.90;;;;;;4898198;29;20114;-80
2021/12/17 10:59:12;;;;;;;3.50;2.97;;;8.80;99.90;;;;;;4897906;29;20060;-80
2021/12/17 11:01:58;;;;;;;1.35;1.25;;;8.90;99.90;;;;;;4913821;29;20380;-79
2021/12/17 11:04:25;;;;;;;4.13;1.08;;;8.90;99.90;;;;;;4913835;29;20087;-79
2021/12/17 11:06:55;;;;;;;1.58;1.58;;;8.90;99.90;;;;;;4882535;29;20040;-80
2021/12/17 11:09:44;;;;;;;1.95;1.55;;;8.90;99.90;;;;;;4898203;29;20425;-80
2021/12/17 11:12:12;;;;;;;1.95;1.25;;;8.90;99.90;;;;;;4897956;29;20052;-80
2021/12/17 11:14:38;;;;;;;3.20;3.03;;;8.90;99.90;;;;;;4897989;29;20063;-79
2021/12/17 11:17:04;;;;;;;1.95;1.48;;;8.90;99.90;;;;;;4897828;29;20556;-79
2021/12/17 11:19:31;;;;;;;1.88;1.73;;;8.90;99.90;;;;;;4898365;29;20159;-80
2021/12/17 11:21:58;;;;;;;0.80;0.80;;;8.90;99.90;;;;;;4898239;29;20096;-79
2021/12/17 11:24:25;;;;;;;4.65;2.72;;;8.90;99.90;;;;;;4898051;29;20609;-79
2021/12/17 11:26:51;;;;;;;0.90;0.73;;;8.90;99.90;;;;;;4913715;29;20143;-79
2021/12/17 11:29:17;;;;;;;1.48;0.50;;;8.90;99.90;;;;;;5011269;28;20136;-80
2021/12/17 11:31:43;;;;;;;2.08;1.98;;;8.90;99.90;;;;;;5012220;28;20045;-79
2021/12/17 11:34:11;;;;;;;2.30;0.82;;;8.90;99.90;;;;;;5027462;28;20038;-79
2021/12/17 11:36:37;;;;;;;2.47;1.42;;;9.00;99.90;;;;;;5027493;28;20116;-80
2021/12/17 11:39:26;;;;;;;1.95;0.73;;;8.90;99.90;;;;;;5010687;28;20050;-79
2021/12/17 11:42:16;;;;;;;8.10;1.02;;;9.00;99.90;;;;;;4994346;28;20052;-79
2021/12/17 11:44:51;;;;;;;2.78;2.35;;;9.00;99.90;;;;;;5011983;28;20050;-79
2021/12/17 11:47:17;;;;;;;1.35;0.90;;;9.00;99.90;;;;;;5011894;28;20049;-80
2021/12/17 11:49:52;;;;;;;0.77;0.77;;;9.00;99.90;;;;;;5027341;28;20045;-79
2021/12/17 11:52:51;;;;;;;0.98;0.95;;;9.00;99.90;;;;;;4994434;28;20054;-79
2021/12/17 11:55:35;;;;;;;1.13;1.13;;;9.10;99.90;;;;;;4951490;29;20114;-79
2021/12/17 11:58:06;;;;;;;0.85;0.82;;;9.00;99.90;;;;;;4936101;29;20146;-80
2021/12/17 12:00:40;;;;;;;1.00;0.80;;;9.10;99.90;;;;;;4954928;29;20079;-79
2021/12/17 12:03:23;;;;;;;1.65;1.33;;;9.10;99.90;;;;;;4955038;29;20069;-79
2021/12/17 12:05:51;;;;;;;1.70;1.52;;;9.10;99.90;;;;;;4954897;29;20052;-79
2021/12/17 12:08:49;;;;;;;2.65;1.35;;;9.20;99.90;;;;;;4939198;29;20558;-79
2021/12/17 12:11:25;;;;;;;0.90;0.90;;;9.10;99.90;;;;;;4897617;29;20063;-80
2021/12/17 12:13:53;;;;;;;3.60;2.65;;;9.10;99.90;;;;;;4897665;29;20061;-80
2021/12/17 12:16:21;;;;;;;1.63;1.52;;;9.10;99.90;;;;;;4881953;29;20497;-79
2021/12/17 12:18:52;;;;;;;1.55;1.48;;;9.10;99.90;;;;;;4882378;29;20509;-79
2021/12/17 12:21:31;;;;;;;2.05;1.95;;;9.10;99.90;;;;;;4897673;29;20071;-79
2021/12/17 12:24:17;;;;;;;2.30;0.70;;;9.10;99.90;;;;;;4882416;29;20056;-80
2021/12/17 12:26:50;;;;;;;2.42;2.22;;;9.20;99.90;;;;;;4897408;29;20060;-79
2021/12/17 12:29:21;;;;;;;1.98;0.20;;;9.20;99.90;;;;;;4897598;29;20056;-79
2021/12/17 12:31:49;;;;;;;0.50;0.45;;;9.20;99.90;;;;;;4947747;29;20051;-79
2021/12/17 12:34:36;;;;;;;1.77;1.67;;;9.20;99.90;;;;;;4954260;29;20496;-79
2021/12/17 12:37:09;;;;;;;0.98;0.60;;;9.20;99.90;;;;;;4954432;29;20126;-80
2021/12/17 12:39:42;;;;;;;1.55;1.50;;;9.20;99.90;;;;;;4938430;29;20051;-79
2021/12/17 12:42:29;;;;;;;2.80;0.85;;;9.20;99.90;;;;;;4954257;29;20149;-79
2021/12/17 12:44:58;;;;;;;1.67;1.58;;;9.30;99.90;;;;;;4900360;29;20589;-80
2021/12/17 12:47:26;;;;;;;0.90;0.40;;;9.20;99.90;;;;;;4916241;29;20063;-80
2021/12/17 12:50:00;;;;;;;0.95;0.90;;;9.20;99.90;;;;;;4954409;29;20404;-79
2021/12/17 12:52:30;;;;;;;0.40;0.40;;;9.20;99.90;;;;;;4970243;28;20051;-80
2021/12/17 12:55:05;;;;;;;2.13;1.38;;;9.30;99.90;;;;;;4938056;29;20074;-79
2021/12/17 12:57:32;;;;;;;0.22;0.22;;;9.30;99.90;;;;;;4938215;29;20499;-80
2021/12/17 13:00:08;;;;;;;0.20;0.20;;;9.20;99.90;;;;;;4951945;29;20483;-80
2021/12/17 13:02:34;;;;;;;0.45;0.45;;;9.30;99.90;;;;;;4969819;28;20059;-79
2021/12/17 13:05:00;;;;;;;0.10;0.10;;;9.30;99.90;;;;;;4937961;29;20135;-80
2021/12/17 13:07:47;;;;;;;0.32;0.25;;;9.30;99.90;;;;;;4954001;28;20059;-81
2021/12/17 13:10:31;;;;;;;0.50;0.30;;;9.40;99.90;;;;;;4953727;29;20365;-80
2021/12/17 13:16:23;;;;;;;1.05;0.40;;;9.40;99.90;;;;;;4875008;29;20049;-80
2021/12/17 13:24:26;;;;;;;0.65;0.65;;;9.30;99.90;;;;;;4915695;29;20442;-81
2021/12/17 13:26:58;;;;;;;0.57;0.55;;;9.20;99.90;;;;;;4931107;29;20521;-81
2021/12/17 13:29:33;;;;;;;9.57;2.60;;;9.20;99.90;;;;;;4899867;29;20510;-80
2021/12/17 13:32:02;;;;;;;0.20;0.20;;;9.20;99.90;;;;;;4930966;29;20054;-80
2021/12/17 13:34:33;;;;;;;0.40;0.40;;;9.20;99.90;;;;;;4899570;29;20048;-80
2021/12/17 13:37:09;;;;;;;0.85;0.85;;;9.20;99.90;;;;;;4899730;29;20063;-80
2021/12/17 13:39:54;;;;;;;0.10;0.10;;;9.10;99.90;;;;;;4930953;29;20119;-80
2021/12/17 13:42:22;;;;;;;0.40;0.40;;;9.10;99.90;;;;;;4931088;29;20081;-81
2021/12/17 13:45:01;;;;;;;0.38;0.38;;;9.10;99.90;;;;;;4899355;29;20444;-82
2021/12/17 13:47:32;;;;;;;0.40;0.40;;;9.10;99.90;;;;;;4883679;29;20048;-81
2021/12/17 13:50:07;;;;;;;1.95;0.47;;;9.10;99.90;;;;;;4915153;29;20509;-81
2021/12/17 13:52:36;;;;;;;0.35;0.35;;;9.10;99.90;;;;;;4933593;28;20053;-80
2021/12/17 13:55:06;;;;;;;0.63;0.63;;;9.00;99.90;;;;;;4995730;28;20171;-80
2021/12/17 13:57:33;;;;;;;1.13;0.50;;;9.00;99.90;;;;;;5012159;28;20046;-80
2021/12/17 14:00:06;;;;;;;3.22;0.88;;;9.00;99.90;;;;;;5013046;28;20495;-80
2021/12/17 14:02:34;;;;;;;0.45;0.45;;;9.00;99.90;;;;;;5013337;28;20340;-80
2021/12/17 14:05:25;;;;;;;0.40;0.40;;;9.00;99.90;;;;;;5011994;28;20384;-78
2021/12/17 14:07:53;;;;;;;0.50;0.50;;;9.00;99.90;;;;;;5013160;28;20406;-80
2021/12/17 14:10:21;;;;;;;0.10;0.10;;;8.90;99.90;;;;;;5012990;28;20564;-80
2021/12/17 14:12:48;;;;;;;0.68;0.68;;;9.00;99.90;;;;;;5011890;28;20045;-80
2021/12/17 14:15:27;;;;;;;3.80;2.63;;;8.90;99.90;;;;;;4995434;28;20138;-80
2021/12/17 14:18:06;;;;;;;2.63;2.42;;;8.90;99.90;;;;;;5011980;28;20061;-80
2021/12/17 14:20:45;;;;;;;3.10;2.30;;;8.90;99.90;;;;;;5011174;28;20124;-80
2021/12/17 14:23:20;;;;;;;1.45;0.82;;;8.90;99.90;;;;;;5028281;28;20099;-80
2021/12/17 14:26:04;;;;;;;1.23;0.43;;;8.90;99.90;;;;;;4995332;28;20041;-80
2021/12/17 14:28:36;;;;;;;0.38;0.38;;;8.90;99.90;;;;;;5012982;28;20046;-80
2021/12/17 14:31:12;;;;;;;1.10;0.93;;;8.90;99.90;;;;;;5012709;28;20072;-79
2021/12/17 14:33:41;;;;;;;0.40;0.40;;;8.90;99.90;;;;;;4995537;28;20050;-80
2021/12/17 14:36:11;;;;;;;0.75;0.40;;;8.90;99.90;;;;;;5012910;28;20104;-81
2021/12/17 14:39:02;;;;;;;1.42;1.33;;;8.90;99.90;;;;;;5012736;28;20133;-81
2021/12/17 14:41:41;;;;;;;0.75;0.75;;;8.90;99.90;;;;;;5028089;28;20102;-81
2021/12/17 14:47:01;;;;;;;1.95;1.02;;;8.90;99.90;;;;;;5012655;28;20046;-80
2021/12/17 15:03:41;;;;;;;4.68;1.10;;;8.80;99.90;;;;;;4932821;29;20055;-81
2021/12/17 15:06:08;;;;;;;0.85;0.38;;;8.80;99.90;;;;;;4932787;29;20052;-81
2021/12/17 15:08:34;;;;;;;0.95;0.95;;;8.70;99.90;;;;;;4901120;29;20055;-81
2021/12/17 15:11:04;;;;;;;0.20;0.20;;;8.80;99.90;;;;;;4932764;29;20040;-80
2021/12/17 15:13:30;;;;;;;1.45;1.33;;;8.80;99.90;;;;;;4932749;29;20055;-84
2021/12/17 15:15:57;;;;;;;0.82;0.82;;;8.80;99.90;;;;;;4917230;29;20261;-84
2021/12/17 15:18:23;;;;;;;0.55;0.55;;;8.90;99.90;;;;;;4917166;29;20429;-82
2021/12/17 15:20:52;;;;;;;1.38;0.85;;;8.80;99.90;;;;;;4932654;29;20052;-81
2021/12/17 15:23:19;;;;;;;1.58;1.48;;;8.90;99.90;;;;;;4916794;29;20062;-81
2021/12/17 15:25:46;;;;;;;1.55;1.50;;;8.80;99.90;;;;;;4948402;28;20123;-81
2021/12/17 15:28:17;;;;;;;0.85;0.85;;;8.70;99.90;;;;;;4916993;29;20493;-80
2021/12/17 15:30:48;;;;;;;0.95;0.95;;;8.70;99.90;;;;;;4932588;29;20576;-82
2021/12/17 15:33:14;;;;;;;2.40;1.65;;;8.70;99.90;;;;;;4935797;29;20062;-81
2021/12/17 15:35:42;;;;;;;0.55;0.40;;;8.70;99.90;;;;;;4920524;29;20047;-81
2021/12/17 15:38:09;;;;;;;1.20;0.63;;;8.70;99.90;;;;;;4952231;29;20646;-81
2021/12/17 15:40:39;;;;;;;1.48;1.38;;;8.70;99.90;;;;;;4984171;28;20069;-82
2021/12/17 15:43:05;;;;;;;1.77;0.95;;;8.70;99.90;;;;;;4996445;28;20505;-83
2021/12/17 15:45:37;;;;;;;1.05;0.85;;;8.70;99.90;;;;;;4979039;28;20136;-82
2021/12/17 15:48:03;;;;;;;;;;;8.80;99.90;;;;;;4979224;28;20185;-82
2021/12/17 15:50:29;;;;;;;0.30;0.30;;;8.70;99.90;;;;;;4995217;28;19922;-83
2021/12/17 15:52:55;;;;;;;0.45;0.45;;;8.90;99.90;;;;;;4979003;28;20046;-83
2021/12/17 15:55:23;;;;;;;1.90;0.88;;;8.80;99.90;;;;;;4996073;28;20053;-84
2021/12/17 15:57:53;;;;;;;2.00;1.00;;;8.80;99.90;;;;;;4996226;28;20399;-85
2021/12/17 16:00:20;;;;;;;1.40;0.65;;;8.90;99.90;;;;;;4978790;28;20076;-82
2021/12/17 16:02:45;;;;;;;0.40;0.40;;;8.90;99.90;;;;;;4978693;28;20483;-84
2021/12/17 16:05:14;;;;;;;0.30;0.30;;;8.90;99.90;;;;;;4978657;28;20137;-84
2021/12/17 16:07:40;;;;;;;0.60;0.60;;;8.90;99.90;;;;;;4978506;28;20050;-85
2021/12/17 16:21:03;;;;;;;1.73;1.63;;;8.70;99.90;;;;;;5010624;28;20054;-81
2021/12/17 16:23:51;;;;;;;0.20;0.20;;;8.80;99.90;;;;;;4978454;28;20466;-82
2021/12/17 16:26:19;;;;;;;0.57;0.45;;;8.70;99.90;;;;;;4978266;28;20403;-82
2021/12/17 16:28:46;;;;;;;1.10;1.10;;;8.70;99.90;;;;;;4995491;28;20463;-82
2021/12/17 16:31:40;;;;;;;0.77;0.70;;;8.70;99.90;;;;;;4995256;28;20074;-84
2021/12/17 16:34:05;;;;;;;0.45;0.45;;;8.70;99.90;;;;;;4992356;28;20137;-82
2021/12/17 16:36:33;;;;;;;0.68;0.68;;;8.70;99.90;;;;;;4978007;28;20077;-84
2021/12/17 16:39:00;;;;;;;3.28;1.63;;;8.70;99.90;;;;;;4995520;28;20101;-83
2021/12/17 16:41:26;;;;;;;1.98;0.77;;;8.80;99.90;;;;;;4995401;28;20415;-81
2021/12/17 16:43:59;;;;;;;2.45;2.25;;;8.70;99.90;;;;;;4994638;28;20046;-81
2021/12/17 16:49:04;;;;;;;4.88;2.60;;;8.80;99.90;;;;;;4995098;28;20046;-84